Time;durP1;ratioP1;P1;durP2;ratioP2;P2;SDS_P1;SDS_P2;PMS_P1;PMS_P2;Temp;Humidity;BMP_temperature;BMP_pressure;BME280_temperature;BME280_humidity;BME280_pressure;Samples;Min_cycle;Max_cycle;Signal;HPM_P1;HPM_P2
2020/12/18 00:00:36;;;;;;;8.37;7.50;;;9.60;69.00;;;;;;4860319;29;20502;-76
2020/12/18 00:03:03;;;;;;;8.80;7.20;;;9.60;69.00;;;;;;4860271;29;21015;-76
2020/12/18 00:05:32;;;;;;;8.30;7.50;;;9.60;69.00;;;;;;4860043;29;20466;-75
2020/12/18 00:07:59;;;;;;;8.33;7.53;;;9.50;68.80;;;;;;4856387;29;20493;-75
2020/12/18 00:10:27;;;;;;;7.57;6.87;;;9.50;68.80;;;;;;4843687;29;20463;-75
2020/12/18 00:12:54;;;;;;;8.20;7.23;;;9.50;69.00;;;;;;4860242;29;20544;-74
2020/12/18 00:15:24;;;;;;;9.50;7.40;;;9.40;68.60;;;;;;4860365;29;20465;-75
2020/12/18 00:17:50;;;;;;;7.80;7.03;;;9.40;68.50;;;;;;4860234;29;20466;-75
2020/12/18 00:20:18;;;;;;;13.60;7.70;;;9.30;68.50;;;;;;4858337;29;20488;-77
2020/12/18 00:22:44;;;;;;;7.00;6.40;;;9.30;68.70;;;;;;4860477;29;20531;-76
2020/12/18 00:25:11;;;;;;;7.57;6.87;;;9.30;68.70;;;;;;4859945;29;20525;-76
2020/12/18 00:27:39;;;;;;;7.60;6.80;;;9.30;68.70;;;;;;4860295;29;20837;-76
2020/12/18 00:30:06;;;;;;;7.40;6.70;;;9.30;68.80;;;;;;4860197;29;20466;-76
2020/12/18 00:32:33;;;;;;;8.47;7.57;;;9.20;68.60;;;;;;4860556;29;20867;-76
2020/12/18 00:35:00;;;;;;;8.27;7.57;;;9.20;68.70;;;;;;4860023;29;20465;-76
2020/12/18 00:37:27;;;;;;;9.90;8.57;;;9.20;68.70;;;;;;4859965;29;20457;-76
2020/12/18 00:39:54;;;;;;;8.80;8.00;;;9.20;68.70;;;;;;4859574;29;20475;-75
2020/12/18 00:42:20;;;;;;;9.13;8.30;;;9.20;68.70;;;;;;4860239;29;20468;-77
2020/12/18 00:44:47;;;;;;;13.03;8.80;;;9.20;68.70;;;;;;4859074;29;20461;-75
2020/12/18 00:47:14;;;;;;;8.90;8.07;;;9.20;68.70;;;;;;4859561;29;20462;-77
2020/12/18 00:49:41;;;;;;;10.73;7.03;;;9.20;68.70;;;;;;4859597;29;20461;-76
2020/12/18 00:52:07;;;;;;;8.20;7.40;;;9.20;68.50;;;;;;4862161;29;20468;-76
2020/12/18 00:54:35;;;;;;;9.30;7.90;;;9.20;68.50;;;;;;4863752;29;20534;-76
2020/12/18 00:57:01;;;;;;;9.70;8.23;;;9.20;68.60;;;;;;4845916;29;20471;-76
2020/12/18 00:59:29;;;;;;;9.13;8.27;;;9.10;68.50;;;;;;4862809;29;20962;-76
2020/12/18 01:01:58;;;;;;;8.67;7.90;;;9.10;68.50;;;;;;4863686;29;20532;-76
2020/12/18 01:04:25;;;;;;;8.00;7.20;;;9.10;68.50;;;;;;4863208;29;20958;-77
2020/12/18 01:06:53;;;;;;;9.60;8.53;;;9.00;68.40;;;;;;4863299;29;20462;-77
2020/12/18 01:09:20;;;;;;;9.67;8.07;;;9.00;68.20;;;;;;4862989;29;20488;-77
2020/12/18 01:11:48;;;;;;;8.90;7.70;;;9.00;68.00;;;;;;4861325;29;20536;-76
2020/12/18 01:14:15;;;;;;;8.97;8.07;;;9.00;68.20;;;;;;4863086;29;20480;-76
2020/12/18 01:16:41;;;;;;;9.07;8.17;;;9.00;68.30;;;;;;4862311;29;20465;-76
2020/12/18 01:19:08;;;;;;;8.70;7.80;;;8.90;68.30;;;;;;4863167;29;20468;-77
2020/12/18 01:21:36;;;;;;;8.93;8.00;;;8.90;68.40;;;;;;4863141;29;20497;-77
2020/12/18 01:24:02;;;;;;;7.20;6.63;;;8.90;68.50;;;;;;4863239;29;20458;-76
2020/12/18 01:26:29;;;;;;;9.67;8.63;;;9.00;68.70;;;;;;4862978;29;20471;-76
2020/12/18 01:28:56;;;;;;;8.70;7.80;;;9.00;68.70;;;;;;4862856;29;20460;-76
2020/12/18 01:31:23;;;;;;;8.27;7.47;;;9.10;68.70;;;;;;4862865;29;20555;-76
2020/12/18 01:33:51;;;;;;;8.40;7.20;;;9.10;68.70;;;;;;4863572;29;20887;-76
2020/12/18 01:36:18;;;;;;;8.20;7.40;;;9.20;68.80;;;;;;4862944;29;20520;-76
2020/12/18 01:38:45;;;;;;;11.33;7.90;;;9.20;68.70;;;;;;4861280;29;20458;-75
2020/12/18 01:41:11;;;;;;;8.50;7.70;;;9.30;68.60;;;;;;4862682;29;20512;-76
2020/12/18 01:43:38;;;;;;;8.93;8.13;;;9.40;68.30;;;;;;4862932;29;20958;-76
2020/12/18 01:46:10;;;;;;;9.70;8.40;;;9.50;68.30;;;;;;4862783;29;20471;-75
2020/12/18 01:48:39;;;;;;;9.73;8.70;;;9.50;68.10;;;;;;4862643;29;20471;-75
2020/12/18 01:51:07;;;;;;;9.13;8.33;;;9.50;67.90;;;;;;4862561;29;20461;-75
2020/12/18 01:53:33;;;;;;;10.27;7.97;;;9.50;67.90;;;;;;4862866;29;20544;-76
2020/12/18 01:56:01;;;;;;;7.50;6.90;;;9.50;68.00;;;;;;4862571;29;20474;-76
2020/12/18 01:58:32;;;;;;;9.37;7.70;;;9.50;68.00;;;;;;4862136;29;20472;-76
2020/12/18 02:01:03;;;;;;;11.43;8.30;;;9.50;67.80;;;;;;4860678;29;20585;-75
2020/12/18 02:03:30;;;;;;;8.47;7.70;;;9.50;67.60;;;;;;4861807;29;20457;-77
2020/12/18 02:05:59;;;;;;;8.43;7.63;;;9.40;67.50;;;;;;4860734;29;20465;-76
2020/12/18 02:08:26;;;;;;;10.43;7.30;;;9.40;67.60;;;;;;4844220;29;20462;-76
2020/12/18 02:10:55;;;;;;;9.03;8.13;;;9.30;67.70;;;;;;4860103;29;20542;-76
2020/12/18 02:13:22;;;;;;;8.87;8.00;;;9.30;67.90;;;;;;4862083;29;20563;-76
2020/12/18 02:15:51;;;;;;;7.90;7.20;;;9.20;67.90;;;;;;4862418;29;20465;-76
2020/12/18 02:18:18;;;;;;;10.63;8.70;;;9.20;67.90;;;;;;4862353;29;20547;-76
2020/12/18 02:20:46;;;;;;;9.43;8.53;;;9.20;67.80;;;;;;4849726;29;20618;-76
2020/12/18 02:23:13;;;;;;;9.50;8.00;;;9.20;67.90;;;;;;4855909;29;20471;-76
2020/12/18 02:25:41;;;;;;;10.13;9.03;;;9.10;67.80;;;;;;4862331;29;20982;-76
2020/12/18 02:28:09;;;;;;;10.10;8.90;;;9.10;68.00;;;;;;4851463;29;20464;-76
2020/12/18 02:30:36;;;;;;;7.90;7.20;;;9.10;68.10;;;;;;4851441;29;20465;-76
2020/12/18 02:33:06;;;;;;;9.93;8.70;;;9.10;68.10;;;;;;4852600;29;20466;-76
2020/12/18 02:35:33;;;;;;;9.57;8.13;;;9.10;68.30;;;;;;4843689;29;20484;-76
2020/12/18 02:38:00;;;;;;;7.97;7.23;;;9.10;68.20;;;;;;4849934;29;20836;-76
2020/12/18 02:40:27;;;;;;;12.13;8.70;;;9.00;68.20;;;;;;4861101;29;20506;-75
2020/12/18 02:42:54;;;;;;;9.30;7.87;;;9.10;68.30;;;;;;4861107;29;20469;-76
2020/12/18 02:45:21;;;;;;;8.20;7.50;;;9.10;68.10;;;;;;4861228;29;20455;-76
2020/12/18 02:47:48;;;;;;;7.53;6.80;;;9.10;68.10;;;;;;4861941;29;20468;-76
2020/12/18 02:50:15;;;;;;;8.20;7.47;;;9.00;67.90;;;;;;4860927;29;20464;-76
2020/12/18 02:52:41;;;;;;;9.40;8.53;;;9.00;68.00;;;;;;4861830;29;20464;-76
2020/12/18 02:55:08;;;;;;;8.87;7.30;;;9.00;68.00;;;;;;4847175;29;20463;-76
2020/12/18 02:57:34;;;;;;;7.97;7.20;;;9.00;68.00;;;;;;4841528;29;20453;-76
2020/12/18 03:00:01;;;;;;;10.07;8.97;;;8.90;68.00;;;;;;4854104;29;21061;-76
2020/12/18 03:02:28;;;;;;;9.80;8.50;;;8.90;68.00;;;;;;4857117;29;20501;-75
2020/12/18 03:04:55;;;;;;;8.47;7.70;;;8.90;68.10;;;;;;4861424;29;20469;-75
2020/12/18 03:07:21;;;;;;;8.67;7.93;;;8.90;68.00;;;;;;4861315;29;20524;-76
2020/12/18 03:09:48;;;;;;;8.97;8.07;;;8.90;68.00;;;;;;4861261;29;20522;-76
2020/12/18 03:12:14;;;;;;;8.70;7.80;;;9.00;68.00;;;;;;4861179;29;20461;-77
2020/12/18 03:14:41;;;;;;;8.10;7.30;;;9.00;68.20;;;;;;4860070;29;20521;-77
2020/12/18 03:17:07;;;;;;;9.30;8.40;;;9.00;68.30;;;;;;4861318;29;20985;-75
2020/12/18 03:19:35;;;;;;;8.60;7.80;;;9.00;68.30;;;;;;4861111;29;20526;-76
2020/12/18 03:22:01;;;;;;;9.23;8.43;;;9.00;68.50;;;;;;4861102;29;20505;-76
2020/12/18 03:24:28;;;;;;;8.80;8.00;;;9.10;68.80;;;;;;4859299;29;20462;-76
2020/12/18 03:26:54;;;;;;;10.37;9.37;;;9.20;69.00;;;;;;4861333;29;20462;-76
2020/12/18 03:29:21;;;;;;;9.10;8.20;;;9.30;68.60;;;;;;4860568;29;20479;-76
2020/12/18 03:31:47;;;;;;;8.00;7.30;;;9.40;68.50;;;;;;4860834;29;20461;-76
2020/12/18 03:34:14;;;;;;;8.80;8.00;;;9.40;68.40;;;;;;4860741;29;20461;-76
2020/12/18 03:36:42;;;;;;;8.03;7.33;;;9.40;68.50;;;;;;4861124;29;20455;-76
2020/12/18 03:39:08;;;;;;;10.50;8.90;;;9.40;68.50;;;;;;4860863;29;20461;-76
2020/12/18 03:41:35;;;;;;;8.97;8.03;;;9.40;68.50;;;;;;4860204;29;21065;-76
2020/12/18 03:44:02;;;;;;;8.93;8.13;;;9.40;68.70;;;;;;4860769;29;20484;-76
2020/12/18 03:46:28;;;;;;;9.90;8.63;;;9.40;68.50;;;;;;4843802;29;20987;-76
2020/12/18 03:48:55;;;;;;;8.10;7.33;;;9.50;68.70;;;;;;4847055;29;20580;-75
2020/12/18 03:51:21;;;;;;;10.30;8.53;;;9.50;68.80;;;;;;4858895;29;20539;-75
2020/12/18 03:53:49;;;;;;;8.80;7.73;;;9.50;69.00;;;;;;4860232;29;20476;-76
2020/12/18 03:56:16;;;;;;;8.33;7.57;;;9.50;69.00;;;;;;4846472;29;20461;-76
2020/12/18 03:58:42;;;;;;;9.53;8.63;;;9.50;69.00;;;;;;4842148;29;20600;-76
2020/12/18 04:01:09;;;;;;;9.40;8.50;;;9.60;69.10;;;;;;4842852;29;20988;-77
2020/12/18 04:03:35;;;;;;;8.43;7.63;;;9.60;69.70;;;;;;4847891;29;20833;-76
2020/12/18 04:06:02;;;;;;;9.27;8.37;;;9.60;69.10;;;;;;4860484;29;20506;-76
2020/12/18 04:08:28;;;;;;;10.10;9.10;;;9.70;69.20;;;;;;4850497;29;20472;-76
2020/12/18 04:10:59;;;;;;;10.90;8.50;;;9.70;69.00;;;;;;4848645;29;20462;-76
2020/12/18 04:13:26;;;;;;;8.83;8.03;;;9.80;69.10;;;;;;4858913;29;20462;-75
2020/12/18 04:15:52;;;;;;;8.40;7.67;;;9.80;69.10;;;;;;4858861;29;21026;-75
2020/12/18 04:18:19;;;;;;;9.70;8.90;;;9.90;68.90;;;;;;4858419;29;20480;-75
2020/12/18 04:20:45;;;;;;;10.07;9.07;;;9.90;68.40;;;;;;4859892;29;20484;-75
2020/12/18 04:23:12;;;;;;;9.53;8.60;;;9.90;68.00;;;;;;4859231;29;20873;-75
2020/12/18 04:25:38;;;;;;;10.70;9.10;;;9.90;67.90;;;;;;4859804;29;20494;-75
2020/12/18 04:28:06;;;;;;;10.00;9.13;;;9.90;68.10;;;;;;4859825;29;20470;-76
2020/12/18 04:30:32;;;;;;;9.27;8.40;;;9.90;68.30;;;;;;4859956;29;20455;-76
2020/12/18 04:32:59;;;;;;;8.53;7.73;;;9.90;68.40;;;;;;4859217;29;20825;-76
2020/12/18 04:35:26;;;;;;;9.23;8.40;;;9.80;68.30;;;;;;4860001;29;20981;-76
2020/12/18 04:37:52;;;;;;;9.37;8.47;;;9.80;68.30;;;;;;4860062;29;20463;-75
2020/12/18 04:40:19;;;;;;;9.50;7.97;;;9.80;68.40;;;;;;4859825;29;20458;-75
2020/12/18 04:42:46;;;;;;;9.77;7.00;;;9.80;68.60;;;;;;4859769;29;20455;-76
2020/12/18 04:45:13;;;;;;;12.03;8.93;;;9.70;68.50;;;;;;4858228;29;20838;-74
2020/12/18 04:47:41;;;;;;;8.83;8.03;;;9.70;68.60;;;;;;4860303;29;20465;-74
2020/12/18 04:50:08;;;;;;;8.70;7.80;;;9.60;68.50;;;;;;4859879;29;20551;-74
2020/12/18 04:52:37;;;;;;;10.10;7.37;;;9.50;68.50;;;;;;4859868;29;20463;-74
2020/12/18 04:55:05;;;;;;;10.53;8.90;;;9.50;68.60;;;;;;4859805;29;20467;-74
2020/12/18 04:57:34;;;;;;;9.00;8.10;;;9.50;68.60;;;;;;4841686;29;20463;-75
2020/12/18 05:00:05;;;;;;;9.90;8.17;;;9.50;68.50;;;;;;4845271;29;20516;-74
2020/12/18 05:02:33;;;;;;;9.53;8.33;;;9.40;68.90;;;;;;4859799;29;20591;-74
2020/12/18 05:05:00;;;;;;;8.30;7.37;;;9.40;69.20;;;;;;4859615;29;20551;-75
2020/12/18 05:07:26;;;;;;;8.87;8.00;;;9.40;69.30;;;;;;4859955;29;20459;-75
2020/12/18 05:09:54;;;;;;;10.70;8.60;;;9.40;69.40;;;;;;4858799;29;20451;-75
2020/12/18 05:12:20;;;;;;;8.80;8.00;;;9.40;69.40;;;;;;4856605;29;20467;-75
2020/12/18 05:14:47;;;;;;;9.20;8.37;;;9.40;69.40;;;;;;4859690;29;20466;-76
2020/12/18 05:17:14;;;;;;;8.97;8.03;;;9.40;69.40;;;;;;4852524;29;20987;-74
2020/12/18 05:19:43;;;;;;;11.30;9.40;;;9.40;69.60;;;;;;4859899;29;20464;-75
2020/12/18 05:22:12;;;;;;;10.67;9.67;;;9.50;69.70;;;;;;4859632;29;20497;-75
2020/12/18 05:24:39;;;;;;;10.67;9.60;;;9.60;69.80;;;;;;4856161;29;20461;-74
2020/12/18 05:27:07;;;;;;;10.00;9.00;;;9.70;69.80;;;;;;4859174;29;20472;-75
2020/12/18 05:29:36;;;;;;;9.67;8.77;;;9.70;69.60;;;;;;4859723;29;20519;-74
2020/12/18 05:32:03;;;;;;;9.70;8.60;;;9.80;69.40;;;;;;4859440;29;20547;-75
2020/12/18 05:34:30;;;;;;;10.07;9.07;;;9.80;69.20;;;;;;4859317;29;20458;-75
2020/12/18 05:36:58;;;;;;;9.90;8.80;;;9.80;69.40;;;;;;4857700;29;20532;-76
2020/12/18 05:39:26;;;;;;;12.97;9.60;;;9.70;69.30;;;;;;4860517;29;20884;-75
2020/12/18 05:41:57;;;;;;;10.30;9.27;;;9.70;69.50;;;;;;4862784;29;20501;-75
2020/12/18 05:44:25;;;;;;;15.40;10.23;;;9.70;69.60;;;;;;4862556;29;20474;-74
2020/12/18 05:46:52;;;;;;;11.03;9.93;;;9.50;70.70;;;;;;4862801;29;20580;-75
2020/12/18 05:49:28;;;;;;;10.90;9.77;;;9.50;71.90;;;;;;4862631;29;20504;-75
2020/12/18 05:51:55;;;;;;;11.03;10.17;;;9.60;72.10;;;;;;4862912;29;20494;-76
2020/12/18 05:54:22;;;;;;;9.13;8.23;;;9.70;72.10;;;;;;4862488;29;20522;-74
2020/12/18 05:56:51;;;;;;;10.73;9.67;;;9.80;71.60;;;;;;4875924;29;20951;-75
2020/12/18 05:59:18;;;;;;;10.00;9.10;;;9.90;71.30;;;;;;4862243;29;20516;-75
2020/12/18 06:01:46;;;;;;;9.50;8.70;;;9.90;71.00;;;;;;4862373;29;20506;-74
2020/12/18 06:04:16;;;;;;;9.57;8.80;;;9.80;70.80;;;;;;4844838;29;20471;-73
2020/12/18 06:06:49;;;;;;;11.70;9.70;;;9.80;71.00;;;;;;4844144;29;20447;-75
2020/12/18 06:09:17;;;;;;;10.80;9.03;;;9.70;70.90;;;;;;4859961;29;20871;-75
2020/12/18 06:11:44;;;;;;;11.27;10.17;;;9.70;70.90;;;;;;4859253;29;20466;-74
2020/12/18 06:14:14;;;;;;;10.30;8.73;;;9.60;70.90;;;;;;4862023;29;20536;-74
2020/12/18 06:16:46;;;;;;;11.40;10.20;;;9.60;71.20;;;;;;4847144;29;20468;-74
2020/12/18 06:19:15;;;;;;;12.67;11.50;;;9.60;71.30;;;;;;4855525;29;20486;-74
2020/12/18 06:21:49;;;;;;;11.60;10.23;;;9.60;71.50;;;;;;4861509;29;20590;-75
2020/12/18 06:24:16;;;;;;;11.63;10.50;;;9.60;71.50;;;;;;4855798;29;21014;-75
2020/12/18 06:26:45;;;;;;;11.13;10.13;;;9.50;71.40;;;;;;4844820;29;20867;-75
2020/12/18 06:29:17;;;;;;;11.27;10.17;;;9.50;71.50;;;;;;4848706;29;20470;-74
2020/12/18 06:31:43;;;;;;;11.37;10.10;;;9.50;71.80;;;;;;4860236;29;20949;-75
2020/12/18 06:34:11;;;;;;;12.23;10.43;;;9.50;71.80;;;;;;4857574;29;20484;-74
2020/12/18 06:36:57;;;;;;;11.27;10.03;;;9.60;71.80;;;;;;4861795;29;20540;-75
2020/12/18 06:39:26;;;;;;;10.93;9.93;;;9.60;71.90;;;;;;4861758;29;20998;-75
2020/12/18 06:42:16;;;;;;;10.90;9.80;;;9.60;71.80;;;;;;4861663;29;20881;-75
2020/12/18 06:44:46;;;;;;;10.63;9.73;;;9.70;71.80;;;;;;4843490;29;20472;-75
2020/12/18 06:47:15;;;;;;;11.43;10.33;;;9.70;71.60;;;;;;4853038;29;20609;-75
2020/12/18 06:50:05;;;;;;;11.40;10.37;;;9.70;71.60;;;;;;4861929;29;20466;-75
2020/12/18 06:52:52;;;;;;;11.00;9.90;;;9.80;71.60;;;;;;4861493;29;20965;-75
2020/12/18 06:55:36;;;;;;;9.17;8.27;;;9.80;71.40;;;;;;4861746;29;20533;-74
2020/12/18 06:58:17;;;;;;;11.73;9.67;;;9.80;71.00;;;;;;4859327;29;20830;-74
2020/12/18 07:00:52;;;;;;;8.67;7.80;;;9.90;70.80;;;;;;4860073;29;20576;-75
2020/12/18 07:03:43;;;;;;;9.47;8.77;;;9.90;70.60;;;;;;4861064;29;20963;-75
2020/12/18 07:06:12;;;;;;;9.90;8.77;;;9.90;70.40;;;;;;4860827;29;20833;-75
2020/12/18 07:08:41;;;;;;;11.47;8.80;;;9.90;70.60;;;;;;4861235;29;20833;-75
2020/12/18 07:11:10;;;;;;;9.60;8.60;;;9.90;70.40;;;;;;4861134;29;20969;-75
2020/12/18 07:13:41;;;;;;;8.73;8.03;;;9.90;70.50;;;;;;4860747;29;20463;-74
2020/12/18 07:16:09;;;;;;;9.80;8.90;;;9.90;70.40;;;;;;4860978;29;20550;-74
2020/12/18 07:18:38;;;;;;;12.00;10.13;;;9.90;70.40;;;;;;4860973;29;20454;-74
2020/12/18 07:21:06;;;;;;;9.77;8.77;;;10.00;69.10;;;;;;4861034;29;20489;-74
2020/12/18 07:23:36;;;;;;;10.70;8.80;;;10.00;69.10;;;;;;4854343;29;20459;-73
2020/12/18 07:26:05;;;;;;;9.10;8.13;;;9.90;70.10;;;;;;4842883;29;20970;-74
2020/12/18 07:28:37;;;;;;;8.60;7.83;;;9.90;70.20;;;;;;4856968;29;20483;-74
2020/12/18 07:31:05;;;;;;;9.97;8.50;;;9.90;70.10;;;;;;4857199;29;20474;-74
2020/12/18 07:33:32;;;;;;;9.90;8.90;;;9.90;70.20;;;;;;4842296;29;20499;-74
2020/12/18 07:36:01;;;;;;;9.27;8.40;;;9.90;70.20;;;;;;4851642;29;20467;-74
2020/12/18 07:38:28;;;;;;;9.87;8.90;;;9.90;70.10;;;;;;4849380;29;20463;-74
2020/12/18 07:40:56;;;;;;;9.73;8.13;;;9.90;70.20;;;;;;4847285;29;21000;-74
2020/12/18 07:43:25;;;;;;;16.00;10.40;;;9.90;70.40;;;;;;4860663;29;20461;-75
2020/12/18 07:45:55;;;;;;;10.70;9.70;;;9.90;70.50;;;;;;4860744;29;20467;-75
2020/12/18 07:48:26;;;;;;;10.57;9.67;;;9.90;70.50;;;;;;4860539;29;20459;-75
2020/12/18 07:51:01;;;;;;;9.20;8.30;;;10.00;69.50;;;;;;4859265;29;20457;-75
2020/12/18 07:53:29;;;;;;;10.47;9.47;;;10.10;69.60;;;;;;4860776;29;20464;-75
2020/12/18 07:56:13;;;;;;;12.13;8.80;;;10.20;69.30;;;;;;4860655;29;20462;-75
2020/12/18 07:58:47;;;;;;;12.13;11.00;;;10.30;69.20;;;;;;4860482;29;20464;-75
2020/12/18 08:01:16;;;;;;;11.23;9.33;;;10.30;69.10;;;;;;4859763;29;20530;-75
2020/12/18 08:03:46;;;;;;;12.13;9.17;;;10.40;69.10;;;;;;4860436;29;20941;-75
2020/12/18 08:06:18;;;;;;;14.50;10.67;;;10.40;68.80;;;;;;4860370;29;20463;-75
2020/12/18 08:08:56;;;;;;;11.23;9.90;;;10.40;68.90;;;;;;4860581;29;20462;-75
2020/12/18 08:11:24;;;;;;;10.33;9.03;;;10.50;69.10;;;;;;4858640;29;20495;-75
2020/12/18 08:13:50;;;;;;;9.63;8.70;;;10.50;69.00;;;;;;4859803;29;20464;-75
2020/12/18 08:16:18;;;;;;;9.57;8.70;;;10.60;69.00;;;;;;4858427;29;20467;-76
2020/12/18 08:18:51;;;;;;;11.30;10.20;;;10.70;69.20;;;;;;4860530;29;20455;-75
2020/12/18 08:21:26;;;;;;;14.27;10.70;;;10.70;69.20;;;;;;4858995;29;20501;-75
2020/12/18 08:24:00;;;;;;;12.27;9.43;;;10.70;69.20;;;;;;4852090;29;20476;-75
2020/12/18 08:26:32;;;;;;;13.00;9.27;;;10.80;68.90;;;;;;4856874;29;20485;-74
2020/12/18 08:28:59;;;;;;;11.30;10.23;;;10.80;68.90;;;;;;4860034;29;20495;-74
2020/12/18 08:31:27;;;;;;;14.10;10.90;;;10.80;68.50;;;;;;4859125;29;20948;-74
2020/12/18 08:33:56;;;;;;;12.40;10.20;;;10.90;68.60;;;;;;4860297;29;20465;-74
2020/12/18 08:36:25;;;;;;;11.23;10.07;;;10.90;68.80;;;;;;4848704;29;20969;-74
2020/12/18 08:39:05;;;;;;;13.80;9.77;;;10.90;68.80;;;;;;4841708;29;20533;-75
2020/12/18 08:41:39;;;;;;;11.00;9.90;;;11.00;68.90;;;;;;4854642;29;20503;-75
2020/12/18 08:44:07;;;;;;;12.30;10.60;;;11.10;68.90;;;;;;4858507;29;20470;-76
2020/12/18 08:46:34;;;;;;;10.97;9.93;;;11.00;68.80;;;;;;4860325;29;20942;-75
2020/12/18 08:49:02;;;;;;;20.13;9.97;;;11.10;69.00;;;;;;4860075;29;20449;-76
2020/12/18 08:51:30;;;;;;;13.07;10.47;;;11.20;69.10;;;;;;4860032;29;20461;-76
2020/12/18 08:53:57;;;;;;;10.90;9.73;;;11.20;68.90;;;;;;4860071;29;20961;-76
2020/12/18 08:56:24;;;;;;;15.10;10.47;;;11.20;68.90;;;;;;4860219;29;20513;-76
2020/12/18 08:59:03;;;;;;;12.20;11.00;;;11.30;68.60;;;;;;4860257;29;20796;-76
2020/12/18 09:01:30;;;;;;;11.30;10.20;;;11.40;68.70;;;;;;4860190;29;20512;-76
2020/12/18 09:03:56;;;;;;;12.03;10.83;;;11.40;68.40;;;;;;4860065;29;20466;-75
2020/12/18 09:06:24;;;;;;;17.37;10.80;;;11.50;68.60;;;;;;4860006;29;20481;-76
2020/12/18 09:09:04;;;;;;;24.23;11.53;;;11.50;68.20;;;;;;4858442;29;20963;-75
2020/12/18 09:11:31;;;;;;;10.77;9.67;;;11.50;67.90;;;;;;4859977;29;20484;-76
2020/12/18 09:13:59;;;;;;;13.70;11.10;;;11.50;67.90;;;;;;4861790;29;20470;-75
2020/12/18 09:16:25;;;;;;;16.13;10.77;;;11.60;68.20;;;;;;4863445;29;20455;-76
2020/12/18 09:18:54;;;;;;;12.23;10.20;;;11.60;68.30;;;;;;4863541;29;20495;-76
2020/12/18 09:21:21;;;;;;;12.03;10.70;;;11.70;68.30;;;;;;4863247;29;20503;-76
2020/12/18 09:23:49;;;;;;;11.53;10.33;;;11.70;67.80;;;;;;4863481;29;20456;-76
2020/12/18 09:26:24;;;;;;;12.70;10.87;;;11.70;67.60;;;;;;4863394;29;20460;-76
2020/12/18 09:28:51;;;;;;;12.10;10.90;;;11.60;67.70;;;;;;4863183;29;20489;-76
2020/12/18 09:31:17;;;;;;;12.60;11.30;;;11.50;67.70;;;;;;4863383;29;21036;-76
2020/12/18 09:33:44;;;;;;;11.50;10.33;;;11.50;68.00;;;;;;4863135;29;20457;-76
2020/12/18 09:36:14;;;;;;;12.00;10.90;;;11.40;68.00;;;;;;4861600;29;20467;-76
2020/12/18 09:38:42;;;;;;;18.13;10.73;;;11.40;68.40;;;;;;4863138;29;20471;-76
2020/12/18 09:41:11;;;;;;;11.10;9.83;;;11.50;68.70;;;;;;4863015;29;21121;-76
2020/12/18 09:43:42;;;;;;;13.43;9.47;;;11.50;68.80;;;;;;4864524;29;20469;-76
2020/12/18 09:46:12;;;;;;;17.40;11.17;;;11.60;68.80;;;;;;4864387;29;20879;-76
2020/12/18 09:48:40;;;;;;;13.27;10.90;;;11.60;68.80;;;;;;4864492;29;21057;-76
2020/12/18 09:51:07;;;;;;;13.40;12.20;;;11.70;68.60;;;;;;4863739;29;20832;-76
2020/12/18 09:53:37;;;;;;;11.57;9.77;;;11.70;68.40;;;;;;4863048;29;20453;-76
2020/12/18 09:56:07;;;;;;;11.20;10.10;;;11.80;68.30;;;;;;4862811;29;20544;-75
2020/12/18 09:58:38;;;;;;;14.83;11.57;;;11.80;68.10;;;;;;4863109;29;20533;-75
2020/12/18 10:01:13;;;;;;;12.47;10.87;;;12.00;68.30;;;;;;4862563;29;20497;-75
2020/12/18 10:03:40;;;;;;;12.40;11.10;;;12.10;68.30;;;;;;4862577;29;20463;-75
2020/12/18 10:06:07;;;;;;;11.60;10.60;;;12.20;67.90;;;;;;4862684;29;20516;-75
2020/12/18 10:08:34;;;;;;;15.10;11.73;;;12.30;67.60;;;;;;4862857;29;20947;-75
2020/12/18 10:11:01;;;;;;;11.17;10.07;;;12.30;67.70;;;;;;4863319;29;20458;-75
2020/12/18 10:13:27;;;;;;;12.20;11.10;;;12.40;68.10;;;;;;4862481;29;20464;-75
2020/12/18 10:15:54;;;;;;;11.03;9.93;;;12.50;68.40;;;;;;4862262;29;20621;-76
2020/12/18 10:18:21;;;;;;;12.07;11.00;;;12.70;68.50;;;;;;4861835;29;20466;-75
2020/12/18 10:20:47;;;;;;;12.47;9.70;;;12.90;68.00;;;;;;4856859;29;21159;-75
2020/12/18 10:23:14;;;;;;;10.80;9.43;;;13.10;67.40;;;;;;4862189;29;20461;-76
2020/12/18 10:25:40;;;;;;;10.03;9.03;;;13.30;67.00;;;;;;4845515;29;20463;-75
2020/12/18 10:28:07;;;;;;;9.53;8.60;;;13.50;66.10;;;;;;4850480;29;20959;-75
2020/12/18 10:30:33;;;;;;;12.10;9.00;;;13.80;65.30;;;;;;4850561;29;20454;-75
2020/12/18 10:33:04;;;;;;;10.93;9.90;;;14.00;64.60;;;;;;4844092;29;20467;-75
2020/12/18 10:35:31;;;;;;;13.80;8.80;;;14.40;63.30;;;;;;4843589;29;20959;-75
2020/12/18 10:38:04;;;;;;;10.20;9.20;;;14.70;62.50;;;;;;4854259;29;20458;-75
2020/12/18 10:40:32;;;;;;;8.80;8.00;;;15.10;61.40;;;;;;4861833;29;20474;-75
2020/12/18 10:42:59;;;;;;;9.10;7.30;;;15.50;59.80;;;;;;4860745;29;20553;-75
2020/12/18 10:45:26;;;;;;;9.93;9.03;;;15.90;59.20;;;;;;4861539;29;20462;-75
2020/12/18 10:47:52;;;;;;;9.60;8.70;;;16.40;58.50;;;;;;4861430;29;20821;-75
2020/12/18 10:50:20;;;;;;;9.93;8.93;;;16.90;57.50;;;;;;4861583;29;20462;-76
2020/12/18 10:52:47;;;;;;;10.47;9.57;;;17.50;56.60;;;;;;4862267;29;20890;-76
2020/12/18 10:55:13;;;;;;;8.73;8.03;;;18.10;55.40;;;;;;4858814;29;20469;-75
2020/12/18 10:57:40;;;;;;;9.73;8.83;;;18.70;53.90;;;;;;4861641;29;20474;-75
2020/12/18 11:00:06;;;;;;;9.50;8.60;;;19.30;52.60;;;;;;4861250;29;20492;-75
2020/12/18 11:02:33;;;;;;;8.93;8.13;;;19.80;50.60;;;;;;4861843;29;20549;-75
2020/12/18 11:04:59;;;;;;;8.60;7.93;;;20.30;49.00;;;;;;4861410;29;20449;-74
2020/12/18 11:07:27;;;;;;;10.30;9.20;;;20.80;48.20;;;;;;4861428;29;20462;-74
2020/12/18 11:09:53;;;;;;;14.30;12.90;;;21.30;47.00;;;;;;4857871;29;20816;-76
2020/12/18 11:12:20;;;;;;;13.00;9.33;;;21.80;46.20;;;;;;4861521;29;20540;-74
2020/12/18 11:14:47;;;;;;;10.93;9.83;;;22.40;45.10;;;;;;4861105;29;20469;-75
2020/12/18 11:17:13;;;;;;;8.47;7.77;;;23.10;43.80;;;;;;4861192;29;20458;-76
2020/12/18 11:19:40;;;;;;;8.63;7.80;;;24.00;42.50;;;;;;4861236;29;20461;-75
2020/12/18 11:22:07;;;;;;;8.67;7.87;;;24.70;40.60;;;;;;4859138;29;20500;-75
2020/12/18 11:24:36;;;;;;;9.53;8.50;;;25.50;39.40;;;;;;4860457;29;20490;-76
2020/12/18 11:27:02;;;;;;;8.40;7.70;;;26.30;37.70;;;;;;4860468;29;20469;-74
2020/12/18 11:29:29;;;;;;;10.50;9.53;;;26.90;36.10;;;;;;4860251;29;20488;-75
2020/12/18 11:31:55;;;;;;;11.43;10.20;;;27.80;35.10;;;;;;4861299;29;20468;-74
2020/12/18 11:34:22;;;;;;;10.87;9.93;;;28.60;33.60;;;;;;4860768;29;20454;-75
2020/12/18 11:36:49;;;;;;;9.90;8.97;;;29.20;32.10;;;;;;4859598;29;20462;-75
2020/12/18 11:39:16;;;;;;;12.77;11.60;;;29.10;31.00;;;;;;4860681;29;20466;-75
2020/12/18 11:41:46;;;;;;;9.83;9.13;;;27.20;32.00;;;;;;4858459;29;20497;-74
2020/12/18 11:44:13;;;;;;;11.70;10.60;;;24.90;35.10;;;;;;4859806;29;20517;-74
2020/12/18 11:46:39;;;;;;;11.23;10.13;;;22.80;37.90;;;;;;4860321;29;20461;-74
2020/12/18 11:49:06;;;;;;;10.87;9.97;;;21.10;40.60;;;;;;4858581;29;20877;-76
2020/12/18 11:51:33;;;;;;;13.73;11.17;;;19.90;43.00;;;;;;4860108;29;20462;-75
2020/12/18 11:53:59;;;;;;;11.37;10.20;;;19.00;45.00;;;;;;4860638;29;20466;-75
2020/12/18 11:56:26;;;;;;;12.37;11.07;;;18.20;46.60;;;;;;4860283;29;20466;-74
2020/12/18 11:58:53;;;;;;;10.80;9.80;;;17.70;48.00;;;;;;4860170;29;20469;-75
2020/12/18 12:01:23;;;;;;;13.27;10.63;;;17.30;49.10;;;;;;4846288;29;20498;-75
2020/12/18 12:03:50;;;;;;;10.40;9.40;;;17.00;50.10;;;;;;4857030;29;20454;-74
2020/12/18 12:06:17;;;;;;;8.43;7.73;;;16.70;50.90;;;;;;4849833;29;20831;-75
2020/12/18 12:08:44;;;;;;;8.40;7.70;;;16.50;51.60;;;;;;4859878;29;20466;-75
2020/12/18 12:11:12;;;;;;;8.77;7.97;;;16.50;52.30;;;;;;4859984;29;20967;-76
2020/12/18 12:13:38;;;;;;;9.00;8.10;;;16.80;52.40;;;;;;4858895;29;20528;-75
2020/12/18 12:16:06;;;;;;;9.13;8.20;;;17.00;51.80;;;;;;4858917;29;20835;-75
2020/12/18 12:18:32;;;;;;;8.63;7.83;;;16.90;51.80;;;;;;4859803;29;20493;-75
2020/12/18 12:20:59;;;;;;;8.70;7.90;;;16.70;52.20;;;;;;4859730;29;20967;-74
2020/12/18 12:23:26;;;;;;;9.47;8.57;;;16.50;52.60;;;;;;4859913;29;20465;-76
2020/12/18 12:25:52;;;;;;;8.30;7.30;;;16.30;53.00;;;;;;4859388;29;20974;-74
2020/12/18 12:28:19;;;;;;;8.60;7.03;;;16.10;53.40;;;;;;4859040;29;20490;-75
2020/12/18 12:30:45;;;;;;;8.60;7.80;;;16.00;53.60;;;;;;4859261;29;20458;-76
2020/12/18 12:33:13;;;;;;;11.23;8.20;;;15.90;54.00;;;;;;4858966;29;21004;-75
2020/12/18 12:35:41;;;;;;;8.00;7.30;;;15.80;54.30;;;;;;4858888;29;20458;-75
2020/12/18 12:38:08;;;;;;;7.40;6.80;;;15.70;54.50;;;;;;4859561;29;20500;-75
2020/12/18 12:40:35;;;;;;;7.80;7.00;;;15.70;54.80;;;;;;4857931;29;20458;-75
2020/12/18 12:43:01;;;;;;;7.63;6.97;;;15.60;55.00;;;;;;4860008;29;20862;-76
2020/12/18 12:45:29;;;;;;;9.97;8.37;;;15.60;55.00;;;;;;4859194;29;20469;-76
2020/12/18 12:47:55;;;;;;;9.50;8.37;;;15.60;55.20;;;;;;4861193;29;20979;-76
2020/12/18 12:50:23;;;;;;;9.30;8.50;;;15.50;55.20;;;;;;4863030;29;20465;-75